sensor_id;sensor_type;location;lat;lon;timestamp;P1;durP1;ratioP1;P2;durP2;ratioP2
19404;SDS011;9838;49.384;8.292;2022-09-13T00:01:15;2.43;;;1.07;;
19404;SDS011;9838;49.384;8.292;2022-09-13T00:11:22;3.20;;;1.10;;
19404;SDS011;9838;49.384;8.292;2022-09-13T00:21:26;1.77;;;1.10;;
19404;SDS011;9838;49.384;8.292;2022-09-13T00:31:28;1.50;;;1.10;;
19404;SDS011;9838;49.384;8.292;2022-09-13T00:41:30;1.60;;;1.00;;
19404;SDS011;9838;49.384;8.292;2022-09-13T00:51:31;1.70;;;1.00;;
19404;SDS011;9838;49.384;8.292;2022-09-13T01:01:38;1.77;;;1.00;;
19404;SDS011;9838;49.384;8.292;2022-09-13T01:11:44;1.23;;;0.90;;
19404;SDS011;9838;49.384;8.292;2022-09-13T01:32:23;1.43;;;0.80;;
19404;SDS011;9838;49.384;8.292;2022-09-13T01:43:30;1.50;;;0.90;;
19404;SDS011;9838;49.384;8.292;2022-09-13T01:53:18;1.60;;;1.00;;
19404;SDS011;9838;49.384;8.292;2022-09-13T02:03:36;1.33;;;0.97;;
19404;SDS011;9838;49.384;8.292;2022-09-13T02:13:53;1.87;;;1.20;;
19404;SDS011;9838;49.384;8.292;2022-09-13T02:24:00;1.97;;;1.00;;
19404;SDS011;9838;49.384;8.292;2022-09-13T02:34:03;1.43;;;0.80;;
19404;SDS011;9838;49.384;8.292;2022-09-13T02:54:20;1.23;;;0.90;;
19404;SDS011;9838;49.384;8.292;2022-09-13T03:04:38;2.77;;;1.10;;
19404;SDS011;9838;49.384;8.292;2022-09-13T03:14:46;1.70;;;1.20;;
19404;SDS011;9838;49.384;8.292;2022-09-13T03:24:51;4.93;;;1.00;;
19404;SDS011;9838;49.384;8.292;2022-09-13T03:35:14;1.53;;;1.13;;
19404;SDS011;9838;49.384;8.292;2022-09-13T03:45:18;1.90;;;1.13;;
19404;SDS011;9838;49.384;8.292;2022-09-13T03:55:23;1.97;;;1.30;;
19404;SDS011;9838;49.384;8.292;2022-09-13T04:05:25;1.60;;;1.13;;
19404;SDS011;9838;49.384;8.292;2022-09-13T04:15:27;2.30;;;1.30;;
19404;SDS011;9838;49.384;8.292;2022-09-13T04:25:30;2.67;;;1.20;;
19404;SDS011;9838;49.384;8.292;2022-09-13T04:35:32;1.80;;;1.20;;
19404;SDS011;9838;49.384;8.292;2022-09-13T04:45:35;1.77;;;1.10;;
19404;SDS011;9838;49.384;8.292;2022-09-13T04:55:37;2.20;;;1.17;;
19404;SDS011;9838;49.384;8.292;2022-09-13T05:05:39;2.10;;;1.30;;
19404;SDS011;9838;49.384;8.292;2022-09-13T05:15:41;2.37;;;1.50;;
19404;SDS011;9838;49.384;8.292;2022-09-13T05:25:43;2.37;;;1.40;;
19404;SDS011;9838;49.384;8.292;2022-09-13T05:35:44;1.60;;;1.07;;
19404;SDS011;9838;49.384;8.292;2022-09-13T05:56:15;1.97;;;1.43;;
19404;SDS011;9838;49.384;8.292;2022-09-13T06:06:17;1.43;;;1.10;;
19404;SDS011;9838;49.384;8.292;2022-09-13T06:16:19;1.83;;;1.17;;
19404;SDS011;9838;49.384;8.292;2022-09-13T06:26:25;1.73;;;1.13;;
19404;SDS011;9838;49.384;8.292;2022-09-13T06:36:28;1.90;;;1.20;;
19404;SDS011;9838;49.384;8.292;2022-09-13T06:46:32;3.63;;;1.10;;
19404;SDS011;9838;49.384;8.292;2022-09-13T06:56:38;3.00;;;1.13;;
19404;SDS011;9838;49.384;8.292;2022-09-13T07:06:41;3.83;;;1.40;;
19404;SDS011;9838;49.384;8.292;2022-09-13T07:16:44;2.97;;;1.17;;
19404;SDS011;9838;49.384;8.292;2022-09-13T07:26:46;2.20;;;1.30;;
19404;SDS011;9838;49.384;8.292;2022-09-13T07:36:49;1.83;;;1.33;;
19404;SDS011;9838;49.384;8.292;2022-09-13T07:46:52;2.10;;;1.40;;
19404;SDS011;9838;49.384;8.292;2022-09-13T07:56:53;5.63;;;1.30;;
19404;SDS011;9838;49.384;8.292;2022-09-13T08:06:55;2.97;;;1.50;;
19404;SDS011;9838;49.384;8.292;2022-09-13T08:16:57;2.37;;;1.50;;
19404;SDS011;9838;49.384;8.292;2022-09-13T08:26:59;2.20;;;1.40;;
19404;SDS011;9838;49.384;8.292;2022-09-13T08:37:01;4.90;;;1.63;;
19404;SDS011;9838;49.384;8.292;2022-09-13T08:57:34;2.93;;;1.93;;
19404;SDS011;9838;49.384;8.292;2022-09-13T09:17:59;1.90;;;1.40;;
19404;SDS011;9838;49.384;8.292;2022-09-13T09:28:08;3.97;;;1.90;;
19404;SDS011;9838;49.384;8.292;2022-09-13T09:48:35;3.60;;;2.33;;
19404;SDS011;9838;49.384;8.292;2022-09-13T09:58:39;4.70;;;2.13;;
19404;SDS011;9838;49.384;8.292;2022-09-13T10:29:37;1.97;;;1.40;;
19404;SDS011;9838;49.384;8.292;2022-09-13T10:39:52;2.60;;;1.70;;
19404;SDS011;9838;49.384;8.292;2022-09-13T10:50:15;2.13;;;1.47;;
19404;SDS011;9838;49.384;8.292;2022-09-13T11:00:22;1.90;;;1.50;;
19404;SDS011;9838;49.384;8.292;2022-09-13T11:10:39;1.60;;;1.20;;
19404;SDS011;9838;49.384;8.292;2022-09-13T11:20:58;1.63;;;1.27;;
19404;SDS011;9838;49.384;8.292;2022-09-13T11:31:08;3.33;;;1.20;;
19404;SDS011;9838;49.384;8.292;2022-09-13T12:01:53;2.13;;;1.30;;
19404;SDS011;9838;49.384;8.292;2022-09-13T12:22:00;2.77;;;1.33;;
19404;SDS011;9838;49.384;8.292;2022-09-13T12:32:03;3.30;;;0.83;;
19404;SDS011;9838;49.384;8.292;2022-09-13T12:52:22;2.80;;;0.90;;
19404;SDS011;9838;49.384;8.292;2022-09-13T13:12:40;1.25;;;0.80;;
19404;SDS011;9838;49.384;8.292;2022-09-13T13:43:14;2.40;;;0.70;;
19404;SDS011;9838;49.384;8.292;2022-09-13T13:53:34;1.60;;;0.68;;
19404;SDS011;9838;49.384;8.292;2022-09-13T14:03:46;1.67;;;0.93;;
19404;SDS011;9838;49.384;8.292;2022-09-13T14:24:15;1.73;;;0.75;;
19404;SDS011;9838;49.384;8.292;2022-09-13T14:34:19;3.85;;;0.98;;
19404;SDS011;9838;49.384;8.292;2022-09-13T14:44:27;1.20;;;0.80;;
19404;SDS011;9838;49.384;8.292;2022-09-13T15:04:44;1.55;;;0.90;;
19404;SDS011;9838;49.384;8.292;2022-09-13T15:14:47;1.67;;;0.70;;
19404;SDS011;9838;49.384;8.292;2022-09-13T15:24:53;0.52;;;0.50;;
19404;SDS011;9838;49.384;8.292;2022-09-13T15:34:55;0.50;;;0.40;;
19404;SDS011;9838;49.384;8.292;2022-09-13T15:44:57;1.05;;;0.52;;
19404;SDS011;9838;49.384;8.292;2022-09-13T15:54:59;0.75;;;0.57;;
19404;SDS011;9838;49.384;8.292;2022-09-13T16:05:01;4.75;;;0.85;;
19404;SDS011;9838;49.384;8.292;2022-09-13T16:15:03;1.00;;;0.60;;
19404;SDS011;9838;49.384;8.292;2022-09-13T16:25:05;1.42;;;0.65;;
19404;SDS011;9838;49.384;8.292;2022-09-13T16:35:07;1.30;;;0.80;;
19404;SDS011;9838;49.384;8.292;2022-09-13T16:45:11;1.05;;;0.52;;
19404;SDS011;9838;49.384;8.292;2022-09-13T16:55:13;0.90;;;0.52;;
19404;SDS011;9838;49.384;8.292;2022-09-13T17:05:15;3.60;;;0.88;;
19404;SDS011;9838;49.384;8.292;2022-09-13T17:15:17;2.30;;;0.80;;
19404;SDS011;9838;49.384;8.292;2022-09-13T17:25:19;4.05;;;1.23;;
19404;SDS011;9838;49.384;8.292;2022-09-13T17:35:22;2.58;;;1.20;;
19404;SDS011;9838;49.384;8.292;2022-09-13T17:45:23;4.10;;;1.27;;
19404;SDS011;9838;49.384;8.292;2022-09-13T17:55:26;3.63;;;1.40;;
19404;SDS011;9838;49.384;8.292;2022-09-13T18:05:27;4.28;;;1.58;;
19404;SDS011;9838;49.384;8.292;2022-09-13T18:15:29;3.83;;;1.63;;
19404;SDS011;9838;49.384;8.292;2022-09-13T18:25:32;2.65;;;1.90;;
19404;SDS011;9838;49.384;8.292;2022-09-13T18:35:34;3.05;;;2.50;;
19404;SDS011;9838;49.384;8.292;2022-09-13T18:45:35;2.95;;;2.13;;
19404;SDS011;9838;49.384;8.292;2022-09-13T18:55:37;5.30;;;2.50;;
19404;SDS011;9838;49.384;8.292;2022-09-13T19:05:39;4.07;;;2.55;;
19404;SDS011;9838;49.384;8.292;2022-09-13T19:15:40;3.63;;;2.50;;
19404;SDS011;9838;49.384;8.292;2022-09-13T19:25:42;3.73;;;2.77;;
19404;SDS011;9838;49.384;8.292;2022-09-13T19:35:44;4.25;;;2.75;;
19404;SDS011;9838;49.384;8.292;2022-09-13T19:45:53;4.37;;;3.03;;
19404;SDS011;9838;49.384;8.292;2022-09-13T19:55:55;4.50;;;2.80;;
19404;SDS011;9838;49.384;8.292;2022-09-13T20:06:00;4.30;;;2.57;;
19404;SDS011;9838;49.384;8.292;2022-09-13T20:16:09;4.77;;;2.27;;
19404;SDS011;9838;49.384;8.292;2022-09-13T20:26:22;3.90;;;2.20;;
19404;SDS011;9838;49.384;8.292;2022-09-13T20:36:26;2.90;;;2.10;;
19404;SDS011;9838;49.384;8.292;2022-09-13T20:46:28;4.80;;;2.00;;
19404;SDS011;9838;49.384;8.292;2022-09-13T20:56:33;3.03;;;2.07;;
19404;SDS011;9838;49.384;8.292;2022-09-13T21:06:38;3.33;;;2.37;;
19404;SDS011;9838;49.384;8.292;2022-09-13T21:17:00;4.40;;;2.37;;
19404;SDS011;9838;49.384;8.292;2022-09-13T21:27:06;4.13;;;2.40;;
19404;SDS011;9838;49.384;8.292;2022-09-13T21:37:07;4.10;;;2.20;;
19404;SDS011;9838;49.384;8.292;2022-09-13T21:47:10;2.57;;;1.90;;
19404;SDS011;9838;49.384;8.292;2022-09-13T21:57:11;3.43;;;1.83;;
19404;SDS011;9838;49.384;8.292;2022-09-13T22:07:13;2.70;;;1.90;;
19404;SDS011;9838;49.384;8.292;2022-09-13T22:17:15;3.80;;;1.83;;
19404;SDS011;9838;49.384;8.292;2022-09-13T22:27:17;2.47;;;1.90;;
19404;SDS011;9838;49.384;8.292;2022-09-13T22:37:20;3.20;;;2.20;;
19404;SDS011;9838;49.384;8.292;2022-09-13T22:47:21;3.17;;;2.33;;
19404;SDS011;9838;49.384;8.292;2022-09-13T22:57:23;3.03;;;1.87;;
19404;SDS011;9838;49.384;8.292;2022-09-13T23:07:25;3.73;;;1.90;;
19404;SDS011;9838;49.384;8.292;2022-09-13T23:17:27;1.83;;;1.47;;
19404;SDS011;9838;49.384;8.292;2022-09-13T23:27:29;2.07;;;1.40;;
19404;SDS011;9838;49.384;8.292;2022-09-13T23:37:31;4.50;;;1.60;;
19404;SDS011;9838;49.384;8.292;2022-09-13T23:47:32;1.97;;;1.10;;
19404;SDS011;9838;49.384;8.292;2022-09-13T23:57:35;3.23;;;1.37;;
